Time;durP1;ratioP1;P1;durP2;ratioP2;P2;SDS_P1;SDS_P2;PMS_P1;PMS_P2;Temp;Humidity;BMP_temperature;BMP_pressure;BME280_temperature;BME280_humidity;BME280_pressure;Samples;Min_cycle;Max_cycle;Signal;HPM_P1;HPM_P2
2021/06/25 00:00:11;;;;;;;;;22.75;18.75;;;;;19.76;44.30;101831.78;4994652;27;46106;-72
2021/06/25 00:02:37;;;;;;;;;20.75;16.00;;;;;19.79;44.60;101823.97;4995129;28;45338;-74
2021/06/25 00:05:05;;;;;;;;;21.75;18.50;;;;;19.78;44.79;101826.56;4994749;28;45268;-74
2021/06/25 00:07:30;;;;;;;;;18.75;15.50;;;;;19.78;44.61;101816.03;4995438;27;45559;-74
2021/06/25 00:09:56;;;;;;;;;18.25;17.75;;;;;19.78;45.17;101822.19;4995184;28;46123;-75
2021/06/25 00:12:22;;;;;;;;;23.00;18.25;;;;;19.80;44.44;101820.50;4994778;28;45361;-75
2021/06/25 00:14:47;;;;;;;;;23.75;22.25;;;;;19.76;44.58;101823.91;4994722;27;45550;-75
2021/06/25 00:17:13;;;;;;;;;21.25;20.50;;;;;19.73;44.99;101817.69;4994859;28;45314;-74
2021/06/25 00:19:39;;;;;;;;;23.00;22.00;;;;;19.69;44.88;101819.38;4994633;27;45784;-75
2021/06/25 00:22:05;;;;;;;;;25.50;20.50;;;;;19.67;44.74;101815.81;4994521;28;45363;-75
2021/06/25 00:24:30;;;;;;;;;20.25;20.25;;;;;19.66;45.14;101816.66;4994895;28;45355;-74
2021/06/25 00:26:56;;;;;;;;;20.75;19.75;;;;;19.64;45.30;101816.63;4995367;28;45227;-75
2021/06/25 00:29:22;;;;;;;;;23.00;21.25;;;;;19.60;45.03;101812.16;4994212;28;45945;-73
2021/06/25 00:31:48;;;;;;;;;21.00;18.75;;;;;19.59;45.36;101810.38;4994911;28;45462;-73
2021/06/25 00:34:15;;;;;;;;;15.50;15.50;;;;;19.59;45.47;101810.38;4994763;27;45344;-74
2021/06/25 00:36:41;;;;;;;;;24.00;21.25;;;;;19.58;45.42;101802.47;4994869;28;45470;-75
2021/06/25 00:39:06;;;;;;;;;20.00;17.00;;;;;19.58;45.70;101798.06;4994258;27;46348;-74
2021/06/25 00:41:32;;;;;;;;;22.00;20.00;;;;;19.60;45.91;101803.34;4976749;28;45379;-76
2021/06/25 00:43:58;;;;;;;;;20.50;20.00;;;;;19.57;45.63;101804.19;4994886;27;45445;-74
2021/06/25 00:46:23;;;;;;;;;24.00;23.00;;;;;19.58;45.85;101807.72;4976719;28;45375;-74
2021/06/25 00:48:49;;;;;;;;;25.25;21.50;;;;;19.55;46.04;101805.00;4994278;27;45840;-75
2021/06/25 00:51:17;;;;;;;;;25.75;22.75;;;;;19.55;45.49;101805.00;4994116;28;45371;-74
2021/06/25 00:53:43;;;;;;;;;27.00;22.00;;;;;19.49;46.05;101806.63;4976724;28;45393;-74
2021/06/25 00:56:12;;;;;;;;;25.25;21.50;;;;;19.51;46.20;101797.91;4976682;28;45685;-75
2021/06/25 00:58:39;;;;;;;;;25.50;21.00;;;;;19.51;46.15;101804.06;4994039;28;46578;-74
2021/06/25 01:01:04;;;;;;;;;22.00;19.00;;;;;19.47;46.63;101803.09;4993939;27;46013;-75
2021/06/25 01:03:31;;;;;;;;;27.00;24.25;;;;;19.42;46.81;101793.34;4994295;28;45271;-73
2021/06/25 01:05:56;;;;;;;;;25.00;23.25;;;;;19.40;47.16;101774.88;4994855;28;45303;-74
2021/06/25 01:08:22;;;;;;;;;24.75;21.25;;;;;19.37;47.51;101774.84;4993686;28;46287;-75
2021/06/25 01:10:49;;;;;;;;;24.25;21.75;;;;;19.36;46.79;101777.41;4994601;28;45254;-75
2021/06/25 01:13:14;;;;;;;;;19.50;18.50;;;;;19.32;47.32;101773.81;4994305;28;45251;-75
2021/06/25 01:15:40;;;;;;;;;24.25;20.75;;;;;19.35;46.85;101773.91;4994204;27;45589;-72
2021/06/25 01:18:06;;;;;;;;;26.50;25.25;;;;;19.36;47.63;101777.41;4993626;28;45426;-73
2021/06/25 01:20:34;;;;;;;;;26.25;23.00;;;;;19.34;47.65;101772.13;4993995;27;45408;-73
2021/06/25 01:23:00;;;;;;;;;21.50;18.50;;;;;19.32;47.26;101768.56;4994002;28;45390;-73
2021/06/25 01:25:31;;;;;;;;;21.25;19.25;;;;;19.31;47.60;101774.66;4994662;27;45510;-74
2021/06/25 01:28:09;;;;;;;;;22.50;19.75;;;;;19.26;47.66;101769.31;4994331;28;46438;-75
2021/06/25 01:30:40;;;;;;;;;23.25;22.25;;;;;19.26;47.54;101765.81;4994068;28;45966;-75
2021/06/25 01:33:08;;;;;;;;;23.25;22.00;;;;;19.24;47.91;101760.50;4993915;28;45433;-75
2021/06/25 01:35:35;;;;;;;;;22.00;19.75;;;;;19.26;47.81;101763.19;4994220;28;45417;-75
2021/06/25 01:38:02;;;;;;;;;23.75;21.75;;;;;19.18;47.69;101769.13;4993612;27;45325;-75
2021/06/25 01:40:27;;;;;;;;;22.25;22.00;;;;;19.05;48.72;101767.06;4994127;28;45338;-74
2021/06/25 01:42:53;;;;;;;;;26.50;25.50;;;;;18.96;48.39;101761.56;4993913;28;45256;-74
2021/06/25 01:45:24;;;;;;;;;25.00;23.25;;;;;18.95;48.80;101755.44;4993849;28;45588;-74
2021/06/25 01:47:51;;;;;;;;;26.50;24.00;;;;;18.94;48.70;101748.41;4993860;28;46203;-74
2021/06/25 01:50:20;;;;;;;;;23.50;21.75;;;;;18.92;48.29;101744.81;4993684;28;45395;-74
2021/06/25 01:52:48;;;;;;;;;21.75;21.00;;;;;18.92;48.76;101739.56;4993827;28;45312;-73
2021/06/25 01:55:14;;;;;;;;;23.25;21.75;;;;;18.94;48.96;101744.91;4993733;28;45357;-77
2021/06/25 01:57:41;;;;;;;;;29.25;25.00;;;;;18.94;49.02;101742.28;4993615;27;46117;-76
2021/06/25 02:00:07;;;;;;;;;25.25;24.75;;;;;18.91;49.00;101739.53;4993563;28;45299;-74
2021/06/25 02:02:33;;;;;;;;;23.50;23.25;;;;;18.95;48.67;101742.31;4993698;28;45274;-75
2021/06/25 02:04:59;;;;;;;;;24.00;21.00;;;;;18.90;48.63;101736.00;4976398;28;45576;-75
2021/06/25 02:07:25;;;;;;;;;26.25;24.50;;;;;18.90;49.20;101738.63;4993642;27;46311;-75
2021/06/25 02:09:51;;;;;;;;;25.75;20.75;;;;;18.88;49.51;101732.50;4993727;28;45384;-75
2021/06/25 02:12:16;;;;;;;;;26.25;23.75;;;;;18.90;49.29;101733.38;4993616;28;45379;-75
2021/06/25 02:14:43;;;;;;;;;24.00;21.75;;;;;18.87;49.12;101723.72;4994126;27;45348;-75
2021/06/25 02:17:09;;;;;;;;;22.75;22.75;;;;;18.81;49.04;101733.16;4994022;28;46476;-75
2021/06/25 02:19:34;;;;;;;;;26.75;24.50;;;;;18.74;49.46;101726.88;4992757;27;45377;-75
2021/06/25 02:22:01;;;;;;;;;24.00;22.25;;;;;18.67;49.43;101725.84;4993416;28;45339;-74
2021/06/25 02:24:26;;;;;;;;;30.25;27.50;;;;;18.65;49.78;101729.25;4994020;28;45524;-76
2021/06/25 02:26:52;;;;;;;;;21.00;21.00;;;;;18.59;49.98;101719.47;4993375;28;45287;-75
2021/06/25 02:29:17;;;;;;;;;22.50;21.50;;;;;18.55;49.80;101722.91;4993240;28;45284;-76
2021/06/25 02:31:43;;;;;;;;;21.75;20.75;;;;;18.52;50.33;101721.06;4993386;28;45350;-75
2021/06/25 02:34:09;;;;;;;;;22.50;20.25;;;;;18.51;50.16;101711.44;4993139;28;45362;-73
2021/06/25 02:36:34;;;;;;;;;25.50;22.00;;;;;18.52;50.15;101712.31;4993134;28;46251;-75
2021/06/25 02:39:00;;;;;;;;;26.75;25.00;;;;;18.51;50.28;101714.06;4992627;28;45385;-74
2021/06/25 02:41:26;;;;;;;;;30.00;26.50;;;;;18.51;50.08;101711.44;4993612;28;45376;-74
2021/06/25 02:43:51;;;;;;;;;25.25;24.50;;;;;18.47;50.43;101706.94;4993285;28;45540;-75
2021/06/25 02:46:17;;;;;;;;;31.00;26.50;;;;;18.44;50.08;101704.25;4992550;28;46356;-75
2021/06/25 02:48:43;;;;;;;;;22.50;20.00;;;;;18.40;50.18;101697.16;4975189;28;45435;-75
2021/06/25 02:51:08;;;;;;;;;26.00;24.75;;;;;18.40;50.77;101697.16;4992745;28;45376;-75
2021/06/25 02:53:34;;;;;;;;;26.75;24.25;;;;;18.42;50.73;101700.69;4993087;28;45319;-75
2021/06/25 02:56:00;;;;;;;;;25.50;25.50;;;;;18.44;50.70;101701.63;4992532;27;46104;-73
2021/06/25 02:58:26;;;;;;;;;31.25;26.75;;;;;18.46;50.72;101705.16;4992845;28;45285;-75
2021/06/25 03:00:55;;;;;;;;;30.25;29.00;;;;;18.42;50.68;101705.91;4993004;28;45293;-75
2021/06/25 03:03:22;;;;;;;;;29.25;25.00;;;;;18.37;50.75;101704.94;4992867;28;45551;-75
2021/06/25 03:05:50;;;;;;;;;31.25;28.25;;;;;18.34;50.42;101708.38;4992790;28;45426;-75
2021/06/25 03:08:16;;;;;;;;;31.75;29.75;;;;;18.32;50.57;101709.16;4992516;27;45209;-75
2021/06/25 03:10:43;;;;;;;;;24.50;22.25;;;;;18.28;50.73;101707.31;4975053;28;45312;-75
2021/06/25 03:13:10;;;;;;;;;32.00;27.50;;;;;18.23;50.68;101697.56;4992628;28;45465;-75
2021/06/25 03:15:36;;;;;;;;;31.50;28.75;;;;;18.23;51.01;101704.56;4992194;27;46365;-75
2021/06/25 03:18:02;;;;;;;;;28.75;25.25;;;;;18.20;50.72;101707.97;4991952;28;45919;-74
2021/06/25 03:20:27;;;;;;;;;28.50;25.75;;;;;18.16;50.96;101695.63;4992807;28;45287;-74
2021/06/25 03:22:53;;;;;;;;;28.25;27.50;;;;;18.15;51.34;101691.25;4992692;28;45601;-74
2021/06/25 03:25:19;;;;;;;;;35.25;31.25;;;;;18.19;51.41;101695.72;4991997;28;46037;-73
2021/06/25 03:27:44;;;;;;;;;30.75;27.25;;;;;18.21;51.13;101690.53;4992506;28;45355;-75
2021/06/25 03:30:11;;;;;;;;;29.00;27.50;;;;;18.22;51.30;101698.41;4992349;27;45408;-75
2021/06/25 03:32:37;;;;;;;;;31.75;30.25;;;;;18.24;50.89;101698.47;4995691;28;45350;-74
2021/06/25 03:35:05;;;;;;;;;40.25;32.50;;;;;18.25;51.31;101689.75;4994994;27;46518;-74
2021/06/25 03:37:31;;;;;;;;;31.25;29.25;;;;;18.28;51.17;101696.81;4977619;28;45468;-74
2021/06/25 03:39:56;;;;;;;;;30.75;29.00;;;;;18.31;50.85;101696.88;4995690;28;45374;-77
2021/06/25 03:42:22;;;;;;;;;34.25;27.75;;;;;18.32;50.68;101698.66;4995518;27;45328;-75
2021/06/25 03:44:48;;;;;;;;;30.25;26.75;;;;;18.35;51.18;101701.38;4995416;27;46278;-74
2021/06/25 03:47:13;;;;;;;;;29.75;25.75;;;;;18.40;51.18;101695.41;4995433;27;45324;-74
2021/06/25 03:49:39;;;;;;;;;26.25;22.50;;;;;18.46;51.36;101697.31;4995709;28;45362;-75
2021/06/25 03:52:05;;;;;;;;;26.50;26.50;;;;;18.50;51.10;101698.28;4995213;28;45552;-74
2021/06/25 03:54:30;;;;;;;;;30.25;27.00;;;;;18.49;51.28;101700.00;4995150;27;46479;-74
2021/06/25 03:56:56;;;;;;;;;27.50;24.25;;;;;18.48;51.27;101703.47;4995460;28;45338;-74
2021/06/25 03:59:22;;;;;;;;;29.50;28.25;;;;;18.55;51.37;101696.66;4994873;27;45379;-74
2021/06/25 04:01:48;;;;;;;;;24.00;23.75;;;;;18.59;51.26;101692.38;4995476;28;45598;-75
2021/06/25 04:04:14;;;;;;;;;29.00;26.50;;;;;18.61;51.30;101690.69;4994681;28;45547;-75
2021/06/25 04:06:40;;;;;;;;;24.75;24.00;;;;;18.62;51.09;101685.47;4995027;27;45523;-75
2021/06/25 04:09:06;;;;;;;;;29.75;25.50;;;;;18.64;51.37;101685.50;4994723;27;45512;-74
2021/06/25 04:11:32;;;;;;;;;30.25;27.75;;;;;18.63;51.22;101682.00;4995214;28;45497;-74
2021/06/25 04:13:58;;;;;;;;;30.00;25.75;;;;;18.65;51.00;101688.19;4977411;28;47717;-75
2021/06/25 04:16:23;;;;;;;;;30.50;29.00;;;;;18.65;51.03;101677.69;4994648;28;45425;-76
2021/06/25 04:18:49;;;;;;;;;25.50;24.50;;;;;18.64;51.11;101678.53;4995117;28;45448;-76
2021/06/25 04:21:15;;;;;;;;;32.75;29.50;;;;;18.61;51.09;101675.84;4977162;28;45525;-74
2021/06/25 04:23:41;;;;;;;;;32.00;28.00;;;;;18.60;51.08;101688.91;4994728;28;45523;-74
2021/06/25 04:26:06;;;;;;;;;31.25;31.00;;;;;18.66;51.02;101695.22;4994683;28;45272;-74
2021/06/25 04:28:32;;;;;;;;;32.25;28.25;;;;;18.67;50.59;101694.38;4994848;28;45346;-77
2021/06/25 04:30:58;;;;;;;;;31.25;30.00;;;;;18.67;50.75;101686.50;4977515;27;45477;-74
2021/06/25 04:33:24;;;;;;;;;35.75;31.75;;;;;18.68;50.83;101683.00;4994242;27;45361;-74
2021/06/25 04:35:53;;;;;;;;;25.50;25.50;;;;;18.72;50.87;101684.00;4994691;28;45244;-74
2021/06/25 04:38:19;;;;;;;;;30.25;28.50;;;;;18.72;50.75;101684.88;4994515;28;45448;-74
2021/06/25 04:40:45;;;;;;;;;33.50;32.00;;;;;18.74;50.94;101686.63;4977285;28;45425;-74
2021/06/25 04:43:12;;;;;;;;;30.25;28.75;;;;;18.76;50.77;101688.44;4993622;27;46181;-74
2021/06/25 04:45:39;;;;;;;;;32.50;25.25;;;;;18.79;50.93;101690.28;4994341;27;45207;-75
2021/06/25 04:48:06;;;;;;;;;28.00;25.25;;;;;18.82;51.05;101687.72;4994798;28;45375;-75
2021/06/25 04:50:32;;;;;;;;;26.50;24.25;;;;;18.85;51.06;101690.41;4994909;28;45434;-75
2021/06/25 04:52:58;;;;;;;;;28.25;26.50;;;;;18.85;51.14;101687.78;4994583;27;45413;-75
2021/06/25 04:55:24;;;;;;;;;29.75;27.50;;;;;18.87;50.87;101691.34;4994188;27;45439;-75
2021/06/25 04:57:51;;;;;;;;;28.50;26.00;;;;;18.89;50.78;101692.28;4994471;28;45371;-75
2021/06/25 05:00:18;;;;;;;;;27.50;27.25;;;;;18.92;50.53;101692.34;4994367;27;45363;-76
2021/06/25 05:02:44;;;;;;;;;22.75;21.50;;;;;18.96;50.40;101688.06;4994364;27;45763;-75
2021/06/25 05:05:10;;;;;;;;;33.25;30.25;;;;;18.98;50.56;101689.00;4994192;28;45277;-74
2021/06/25 05:07:36;;;;;;;;;29.50;29.25;;;;;19.01;50.89;101681.22;4994594;27;45486;-76
2021/06/25 05:10:02;;;;;;;;;32.25;30.00;;;;;19.03;50.62;101688.25;4994603;28;45443;-76
2021/06/25 05:12:28;;;;;;;;;29.50;27.25;;;;;19.05;50.51;101682.16;4994407;28;46353;-76
2021/06/25 05:14:53;;;;;;;;;35.75;25.00;;;;;19.11;50.48;101679.72;4994051;28;45370;-76
2021/06/25 05:17:19;;;;;;;;;31.50;30.00;;;;;19.12;50.48;101684.97;4994158;28;45336;-76
2021/06/25 05:19:44;;;;;;;;;31.25;29.00;;;;;19.09;50.58;101684.91;4994348;28;45373;-76
2021/06/25 05:22:10;;;;;;;;;30.50;29.75;;;;;19.10;50.12;101680.56;4993848;27;46178;-75
2021/06/25 05:24:36;;;;;;;;;38.00;31.75;;;;;19.13;50.04;101681.50;4994006;28;45284;-75
2021/06/25 05:27:02;;;;;;;;;30.50;26.50;;;;;19.12;50.48;101691.94;4993940;28;45230;-74
2021/06/25 05:29:28;;;;;;;;;30.25;28.00;;;;;19.14;50.29;101696.41;4975778;28;45300;-72
2021/06/25 05:31:54;;;;;;;;;28.75;26.00;;;;;19.15;50.43;101692.94;4992945;28;46301;-75
2021/06/25 05:34:19;;;;;;;;;27.25;26.50;;;;;19.21;50.76;101686.03;4993066;27;45373;-74
2021/06/25 05:36:45;;;;;;;;;31.00;25.25;;;;;19.23;50.57;101692.22;4993294;28;45217;-73
2021/06/25 05:39:11;;;;;;;;;29.25;28.00;;;;;19.27;50.20;101691.44;4993032;28;45376;-75
2021/06/25 05:41:36;;;;;;;;;33.00;29.25;;;;;19.28;50.52;101680.97;4993144;27;46117;-74
2021/06/25 05:44:03;;;;;;;;;27.25;24.25;;;;;19.32;50.08;101689.81;4992855;28;45415;-72
2021/06/25 05:46:28;;;;;;;;;29.75;25.00;;;;;19.30;50.08;101681.00;4993502;28;45445;-77
2021/06/25 05:48:54;;;;;;;;;28.00;28.00;;;;;19.32;49.52;101689.81;4993175;28;45386;-75
2021/06/25 05:51:20;;;;;;;;;29.00;27.50;;;;;19.37;49.86;101679.41;4991816;27;46164;-75
2021/06/25 05:53:45;;;;;;;;;35.25;31.25;;;;;19.39;49.96;101683.81;4992235;28;45336;-73
2021/06/25 05:56:11;;;;;;;;;26.50;25.75;;;;;19.45;49.80;101690.94;4992370;28;45402;-75
2021/06/25 05:58:36;;;;;;;;;26.25;25.00;;;;;19.50;49.45;101681.44;4994766;27;45185;-74
2021/06/25 06:01:04;;;;;;;;;29.00;29.00;;;;;19.54;49.72;101691.19;4992188;28;45654;-74
2021/06/25 06:03:30;;;;;;;;;32.00;29.25;;;;;19.59;49.76;101693.91;4993181;27;45562;-72
2021/06/25 06:05:56;;;;;;;;;27.00;27.00;;;;;19.62;49.28;101683.44;4994216;27;45480;-76
2021/06/25 06:08:21;;;;;;;;;31.00;27.00;;;;;19.63;49.38;101688.75;4993376;28;45684;-77
2021/06/25 06:10:47;;;;;;;;;28.25;23.25;;;;;19.68;49.41;101690.56;4995161;28;46405;-78
2021/06/25 06:13:12;;;;;;;;;31.50;28.50;;;;;19.69;48.58;101690.63;4992773;28;45402;-78
2021/06/25 06:15:38;;;;;;;;;26.75;25.50;;;;;19.72;48.99;101693.28;4991292;28;45426;-80
2021/06/25 06:18:05;;;;;;;;;27.00;22.50;;;;;19.72;48.16;101688.03;4992468;27;45409;-74
2021/06/25 06:20:31;;;;;;;;;24.50;24.50;;;;;19.74;48.04;101688.97;4974951;28;45508;-76
2021/06/25 06:33:46;;;;;;;;;27.75;24.50;;;;;19.94;46.53;101678.00;4992586;28;45761;-78
2021/06/25 06:36:28;;;;;;;;;23.25;20.50;;;;;19.92;46.33;101685.00;4991249;28;45392;-79
2021/06/25 06:38:55;;;;;;;;;21.50;20.00;;;;;19.90;46.05;101678.81;4992072;28;45457;-77
2021/06/25 06:41:21;;;;;;;;;25.50;19.50;;;;;19.87;45.89;101677.00;4992396;28;45294;-76
2021/06/25 06:43:47;;;;;;;;;22.25;21.50;;;;;19.91;45.45;101673.56;4992764;28;45436;-74
2021/06/25 06:46:14;;;;;;;;;24.75;21.75;;;;;19.89;45.82;101679.66;4992946;28;45280;-78
2021/06/25 06:48:43;;;;;;;;;26.75;23.50;;;;;19.90;45.82;101677.06;4976129;28;45363;-83
2021/06/25 06:51:08;;;;;;;;;20.25;19.25;;;;;19.92;45.78;101693.75;4993640;28;46734;-78
2021/06/25 06:53:34;;;;;;;;;22.75;20.00;;;;;19.83;45.63;101685.66;4992555;28;45329;-78
2021/06/25 06:56:00;;;;;;;;;24.50;21.75;;;;;19.85;45.59;101690.94;4990983;28;45485;-76
2021/06/25 06:58:26;;;;;;;;;22.50;22.00;;;;;19.85;45.65;101690.94;4992289;28;45439;-78
2021/06/25 07:00:53;;;;;;;;;26.25;21.25;;;;;19.80;45.04;101693.47;4992465;28;46543;-78
2021/06/25 07:03:18;;;;;;;;;21.50;19.25;;;;;19.77;45.18;101690.75;4991551;28;45228;-79
2021/06/25 07:05:44;;;;;;;;;25.75;22.50;;;;;19.76;45.27;101689.88;4993416;28;45824;-80
2021/06/25 07:08:10;;;;;;;;;37.50;30.75;;;;;19.82;45.46;101680.34;4977745;28;45357;-83
2021/06/25 07:10:36;;;;;;;;;28.75;24.75;;;;;19.93;45.44;101685.00;4996300;27;46213;-87
2021/06/25 07:13:02;;;;;;;;;21.75;20.00;;;;;20.04;45.73;101673.81;4994010;27;45779;-76
2021/06/25 07:15:28;;;;;;;;;20.50;20.25;;;;;20.14;45.48;101677.53;4973033;27;45511;-74
2021/06/25 07:17:54;;;;;;;;;23.25;19.50;;;;;20.18;44.84;101668.81;4992628;27;45718;-75
2021/06/25 07:20:19;;;;;;;;;19.00;17.75;;;;;20.23;45.47;101667.19;4992184;28;46296;-75
2021/06/25 07:22:45;;;;;;;;;23.50;21.00;;;;;20.25;45.08;101670.69;4992881;27;45515;-77
2021/06/25 07:25:12;;;;;;;;;27.50;20.50;;;;;20.34;44.73;101670.00;4992926;28;45447;-74
2021/06/25 07:27:37;;;;;;;;;26.50;23.50;;;;;20.34;44.11;101672.63;4995544;28;45630;-78
2021/06/25 07:30:04;;;;;;;;;22.50;21.75;;;;;20.34;43.82;101664.72;4994986;28;46135;-76
2021/06/25 07:32:30;;;;;;;;;21.75;19.25;;;;;20.32;43.87;101664.72;4995324;28;45293;-75
2021/06/25 07:34:56;;;;;;;;;21.25;18.25;;;;;20.38;43.87;101663.94;4995474;28;45347;-76
2021/06/25 07:37:23;;;;;;;;;22.00;21.75;;;;;20.42;44.22;101666.66;4995485;28;45408;-76
2021/06/25 07:39:49;;;;;;;;;24.50;23.50;;;;;20.43;44.45;101670.16;4993921;28;45412;-76
2021/06/25 07:42:15;;;;;;;;;22.25;19.00;;;;;20.47;44.10;101665.81;4994412;28;45432;-75
2021/06/25 07:44:41;;;;;;;;;22.75;21.00;;;;;20.45;43.68;101668.44;4994753;27;45262;-76
2021/06/25 07:47:07;;;;;;;;;25.50;21.00;;;;;20.41;44.08;101662.25;4995198;27;45215;-76
2021/06/25 07:49:34;;;;;;;;;21.50;20.50;;;;;20.39;43.47;101655.19;4994092;28;45528;-77
2021/06/25 07:52:00;;;;;;;;;26.25;23.50;;;;;20.44;43.48;101660.53;4994491;28;45889;-75
2021/06/25 07:54:26;;;;;;;;;22.75;22.25;;;;;20.38;43.56;101658.69;4995115;28;45369;-76
2021/06/25 07:56:51;;;;;;;;;22.00;20.25;;;;;20.37;44.49;101651.66;4994373;27;45314;-76
2021/06/25 07:59:17;;;;;;;;;26.25;26.00;;;;;20.37;44.23;101652.53;4994490;28;46386;-77
2021/06/25 08:01:42;;;;;;;;;24.50;21.75;;;;;20.36;44.07;101647.25;4977161;28;45441;-79
2021/06/25 08:04:08;;;;;;;;;27.00;23.00;;;;;20.41;44.50;101645.56;4994858;28;45404;-78
2021/06/25 08:06:34;;;;;;;;;25.00;22.25;;;;;20.36;44.58;101645.47;4995283;27;45303;-77
2021/06/25 08:09:03;;;;;;;;;19.00;19.00;;;;;20.34;44.12;101638.44;4994482;28;46240;-76
2021/06/25 08:11:29;;;;;;;;;23.50;20.50;;;;;20.32;44.21;101641.03;4994239;28;45309;-76
2021/06/25 08:13:54;;;;;;;;;24.00;21.00;;;;;20.33;43.50;101639.28;4994345;28;45783;-77
2021/06/25 08:16:20;;;;;;;;;20.00;17.25;;;;;20.19;43.63;101639.06;4993884;28;45414;-78
2021/06/25 08:18:46;;;;;;;;;22.75;20.00;;;;;20.29;43.34;101633.09;4993161;28;45773;-76
2021/06/25 08:21:11;;;;;;;;;19.75;16.75;;;;;20.35;43.88;101633.22;4994930;27;45390;-76
2021/06/25 08:23:37;;;;;;;;;27.50;22.50;;;;;20.48;43.83;101633.41;4994475;28;45550;-76
2021/06/25 08:26:03;;;;;;;;;17.75;16.00;;;;;20.62;43.53;101629.28;4994614;28;45590;-75
2021/06/25 08:28:28;;;;;;;;;21.75;19.25;;;;;20.62;43.42;101625.78;4994448;28;45588;-75
2021/06/25 08:30:54;;;;;;;;;21.00;18.75;;;;;20.59;42.93;101633.59;4994706;28;45382;-75
2021/06/25 08:33:19;;;;;;;;;17.50;16.75;;;;;20.63;43.20;101627.50;4994711;28;45340;-77
2021/06/25 08:35:45;;;;;;;;;19.50;18.00;;;;;20.79;42.98;101616.41;4994899;28;45537;-77
2021/06/25 08:38:10;;;;;;;;;22.25;20.00;;;;;20.82;42.63;101618.19;4994160;28;46077;-77
2021/06/25 08:40:36;;;;;;;;;24.25;21.25;;;;;20.87;42.34;101609.50;4994439;28;45226;-77
2021/06/25 08:43:02;;;;;;;;;21.75;20.50;;;;;20.97;42.87;101609.66;4993965;28;45321;-75
2021/06/25 08:45:29;;;;;;;;;22.00;17.75;;;;;20.97;42.85;101612.28;4994268;27;45353;-76
2021/06/25 08:47:55;;;;;;;;;17.50;16.75;;;;;20.95;42.48;101600.88;4994055;28;46237;-76
2021/06/25 08:50:23;;;;;;;;;18.50;17.50;;;;;21.11;42.40;101613.38;4975651;28;45755;-76
2021/06/25 08:52:51;;;;;;;;;20.50;18.75;;;;;20.97;42.42;101607.91;4994694;28;45406;-76
2021/06/25 08:55:18;;;;;;;;;23.50;19.00;;;;;21.00;42.52;101612.34;4994050;27;45542;-77
2021/06/25 08:57:45;;;;;;;;;16.25;15.00;;;;;21.06;41.94;101609.78;4994858;28;46234;-77
2021/06/25 09:00:14;;;;;;;;;18.50;17.00;;;;;21.17;42.53;101608.16;4994680;27;45930;-79
2021/06/25 09:02:40;;;;;;;;;19.75;16.25;;;;;21.27;42.39;101605.69;4997619;28;45469;-82
2021/06/25 09:05:09;;;;;;;;;21.00;18.00;;;;;21.20;42.75;101604.72;4977313;28;45640;-82
2021/06/25 09:07:42;;;;;;;;;16.25;14.25;;;;;21.24;42.85;101588.06;4994422;28;46556;-81
2021/06/25 09:10:14;;;;;;;;;20.75;18.25;;;;;21.30;42.51;101587.28;4993125;28;45354;-80
2021/06/25 09:12:40;;;;;;;;;16.50;14.00;;;;;21.23;43.18;101594.19;4992030;28;45367;-82
2021/06/25 09:15:13;;;;;;;;;14.75;14.75;;;;;21.33;42.78;101582.06;4960850;28;45359;-81
2021/06/25 09:18:08;;;;;;;;;14.50;14.00;;;;;21.35;43.28;101588.22;4976576;28;45382;-81
2021/06/25 09:20:44;;;;;;;;;14.75;14.00;;;;;21.41;43.59;101580.38;4993854;28;45358;-80
2021/06/25 09:23:25;;;;;;;;;11.25;10.50;;;;;21.53;43.45;101578.78;4975546;28;45441;-80
2021/06/25 09:25:52;;;;;;;;;13.25;12.75;;;;;21.71;43.22;101578.13;4994436;28;45411;-80
2021/06/25 09:28:26;;;;;;;;;17.25;16.00;;;;;21.85;43.23;101573.00;4992302;27;45597;-81
2021/06/25 09:30:52;;;;;;;;;12.75;12.75;;;;;22.03;42.93;101570.53;4989602;28;45406;-80
2021/06/25 09:33:17;;;;;;;;;13.50;11.50;;;;;22.16;42.92;101573.28;4992860;28;45393;-80
2021/06/25 09:35:48;;;;;;;;;13.25;13.00;;;;;22.25;43.00;101570.72;4992723;28;45553;-81
2021/06/25 09:38:14;;;;;;;;;12.50;10.50;;;;;22.47;42.49;101568.28;4973983;28;45535;-80
2021/06/25 09:40:39;;;;;;;;;12.00;11.25;;;;;22.57;42.29;101560.47;4974251;28;45209;-80
2021/06/25 09:43:13;;;;;;;;;12.00;10.25;;;;;22.68;42.41;101554.38;4991243;28;45470;-80
2021/06/25 09:45:49;;;;;;;;;9.25;8.25;;;;;22.67;41.73;101571.09;4993818;28;45309;-80
2021/06/25 09:48:16;;;;;;;;;12.50;11.25;;;;;22.63;42.23;101557.00;4986657;27;45771;-78
2021/06/25 09:50:43;;;;;;;;;8.00;8.00;;;;;22.61;42.01;101557.88;4990725;28;45425;-81
2021/06/25 09:53:09;;;;;;;;;8.00;7.25;;;;;22.63;41.47;101564.91;4990830;28;45434;-81
2021/06/25 09:55:53;;;;;;;;;9.25;8.25;;;;;22.79;41.83;101550.06;4993401;28;45271;-82
2021/06/25 10:01:25;;;;;;;;;7.50;6.75;;;;;23.04;41.79;101560.75;4993049;28;45413;-80
2021/06/25 10:03:56;;;;;;;;;4.75;4.75;;;;;23.08;42.18;101572.22;4973911;28;45431;-79
2021/06/25 10:06:26;;;;;;;;;4.25;4.25;;;;;23.17;41.71;101570.47;4989486;28;45370;-78
2021/06/25 10:08:53;;;;;;;;;7.25;7.25;;;;;23.22;41.74;101578.47;4993021;28;46052;-77
2021/06/25 10:11:21;;;;;;;;;4.00;4.00;;;;;23.12;41.81;101572.22;4989452;27;45295;-78
2021/06/25 10:13:48;;;;;;;;;10.00;6.00;;;;;23.02;42.00;101570.44;4992897;28;45542;-78
2021/06/25 10:16:15;;;;;;;;;6.25;6.25;;;;;22.95;42.29;101564.22;4973407;28;45846;-80
2021/06/25 10:18:49;;;;;;;;;6.75;6.75;;;;;22.92;42.44;101565.97;4990581;28;46509;-78
2021/06/25 10:21:25;;;;;;;;;7.00;5.50;;;;;22.90;42.97;101567.72;4973335;28;45697;-79
2021/06/25 10:23:58;;;;;;;;;5.50;4.50;;;;;22.90;42.59;101559.78;4992421;27;45553;-78
2021/06/25 10:26:24;;;;;;;;;5.75;5.75;;;;;22.95;41.60;101565.97;4991335;28;45537;-79
2021/06/25 10:28:52;;;;;;;;;5.75;5.00;;;;;22.97;41.66;101562.47;4992193;28;45839;-81
2021/06/25 10:31:22;;;;;;;;;6.75;5.50;;;;;23.15;41.37;101568.72;4991560;28;45679;-82
2021/06/25 10:33:49;;;;;;;;;5.00;5.00;;;;;23.24;41.18;101571.44;4992600;28;45343;-80
2021/06/25 10:36:18;;;;;;;;;7.25;6.00;;;;;23.24;40.52;101558.22;4992644;27;45270;-79
2021/06/25 10:38:45;;;;;;;;;5.75;5.75;;;;;23.24;40.77;101560.00;4992602;27;45602;-80
2021/06/25 10:41:13;;;;;;;;;5.00;5.00;;;;;23.38;40.87;101563.53;4991741;28;45402;-80
2021/06/25 10:43:48;;;;;;;;;8.75;5.75;;;;;23.39;41.54;101562.66;4992835;28;45387;-80
2021/06/25 10:46:35;;;;;;;;;6.50;5.25;;;;;23.50;41.37;101557.44;4992533;28;45300;-80
2021/06/25 10:49:14;;;;;;;;;8.75;8.00;;;;;23.57;41.59;101555.69;4992422;28;46460;-80
2021/06/25 10:51:45;;;;;;;;;6.50;6.50;;;;;23.60;41.68;101555.69;4993777;28;45864;-82
2021/06/25 10:54:20;;;;;;;;;5.25;5.25;;;;;23.59;42.47;101551.31;4974283;28;45267;-80
2021/06/25 10:56:48;;;;;;;;;8.50;6.50;;;;;23.52;43.02;101558.34;4992748;28;45449;-81
2021/06/25 10:59:18;;;;;;;;;8.00;7.25;;;;;23.47;43.49;101554.78;4992446;28;45373;-82
2021/06/25 11:01:53;;;;;;;;;8.25;6.75;;;;;23.28;44.50;101552.09;4994684;28;45351;-81
2021/06/25 11:04:30;;;;;;;;;6.25;6.25;;;;;23.26;45.05;101547.69;4994186;28;45518;-84
2021/06/25 11:06:57;;;;;;;;;9.00;8.25;;;;;23.28;44.94;101554.72;4993168;28;45307;-81
2021/06/25 11:09:31;;;;;;;;;7.00;7.00;;;;;23.27;44.73;101555.59;4992841;28;46367;-83
2021/06/25 11:12:21;;;;;;;;;9.50;8.75;;;;;23.25;45.65;101553.84;4990526;28;45707;-80
2021/06/25 11:14:51;;;;;;;;;10.00;8.00;;;;;23.14;45.75;101565.22;4991485;27;45473;-82
2021/06/25 11:17:49;;;;;;;;;6.00;6.00;;;;;23.09;46.13;101563.41;4991709;28;45441;-79
2021/06/25 11:20:19;;;;;;;;;9.25;7.75;;;;;23.00;46.73;101567.75;4991212;28;45525;-83
2021/06/25 11:23:08;;;;;;;;;6.25;6.00;;;;;22.87;47.74;101561.53;4993579;28;45814;-84
2021/06/25 11:25:40;;;;;;;;;6.00;6.00;;;;;22.84;48.05;101569.44;4981361;27;45672;-82